Time;durP1;ratioP1;P1;durP2;ratioP2;P2;SDS_P1;SDS_P2;PMS_P1;PMS_P2;Temp;Humidity;BMP_temperature;BMP_pressure;BME280_temperature;BME280_humidity;BME280_pressure;Samples;Min_cycle;Max_cycle;Signal;HPM_P1;HPM_P2
2022/05/02 00:00:51;;;;;;;11.35;10.25;;;;;;;;;;5104806;28;20389;-68
2022/05/02 00:03:18;;;;;;;11.27;10.23;;;;;;;;;;5104781;28;20202;-68
2022/05/02 00:05:45;;;;;;;11.27;10.13;;;;;;;;;;5104585;28;20220;-68
2022/05/02 00:08:12;;;;;;;12.18;10.93;;;;;;;;;;5104318;28;20192;-68
2022/05/02 00:10:38;;;;;;;11.65;10.55;;;;;;;;;;5104722;28;20203;-68
2022/05/02 00:13:06;;;;;;;10.75;9.75;;;;;;;;;;5104972;28;20233;-68
2022/05/02 00:15:32;;;;;;;11.10;9.98;;;;;;;;;;5104381;28;20195;-68
2022/05/02 00:17:59;;;;;;;11.07;9.93;;;;;;;;;;5104219;28;20394;-68
2022/05/02 00:20:26;;;;;;;11.93;10.80;;;;;;;;;;5104393;28;20328;-68
2022/05/02 00:22:54;;;;;;;11.63;10.55;;;;;;;;;;5104224;28;20204;-68
2022/05/02 00:25:20;;;;;;;12.27;11.07;;;;;;;;;;5104189;28;20309;-68
2022/05/02 00:27:47;;;;;;;12.80;11.60;;;;;;;;;;5104261;28;20253;-68
2022/05/02 00:30:13;;;;;;;11.60;10.45;;;;;;;;;;5104176;28;20202;-68
2022/05/02 00:32:40;;;;;;;11.25;10.35;;;;;;;;;;5104088;28;20555;-68
2022/05/02 00:35:07;;;;;;;12.68;11.35;;;;;;;;;;5104115;28;20428;-68
2022/05/02 00:37:34;;;;;;;14.13;10.93;;;;;;;;;;5104024;28;20269;-68
2022/05/02 00:40:01;;;;;;;12.55;11.35;;;;;;;;;;5103732;28;20195;-68
2022/05/02 00:42:27;;;;;;;14.10;11.52;;;;;;;;;;5104314;28;20402;-68
2022/05/02 00:44:54;;;;;;;12.48;11.25;;;;;;;;;;5104247;28;20199;-68
2022/05/02 00:47:21;;;;;;;12.07;11.02;;;;;;;;;;5103010;28;20499;-68
2022/05/02 00:49:48;;;;;;;12.85;11.57;;;;;;;;;;5103746;28;20474;-68
2022/05/02 00:52:15;;;;;;;12.02;10.90;;;;;;;;;;5103698;28;20204;-68
2022/05/02 00:54:42;;;;;;;12.48;11.27;;;;;;;;;;5103826;28;20228;-68
2022/05/02 00:57:11;;;;;;;11.57;10.50;;;;;;;;;;5103555;28;20652;-68
2022/05/02 00:59:38;;;;;;;11.98;10.77;;;;;;;;;;5103504;28;20196;-68
2022/05/02 01:02:04;;;;;;;11.55;10.52;;;;;;;;;;5103823;28;20241;-68
2022/05/02 01:04:31;;;;;;;11.43;10.52;;;;;;;;;;5103395;28;20196;-68
2022/05/02 01:07:12;;;;;;;11.93;10.77;;;;;;;;;;5103221;28;20211;-68
2022/05/02 01:09:39;;;;;;;12.80;10.77;;;;;;;;;;5103577;28;20195;-68
2022/05/02 01:12:11;;;;;;;11.80;10.65;;;;;;;;;;5103653;28;20191;-68
2022/05/02 01:14:38;;;;;;;12.18;11.07;;;;;;;;;;5103014;28;20195;-68
2022/05/02 01:17:05;;;;;;;12.93;11.63;;;;;;;;;;5103204;28;20211;-68
2022/05/02 01:19:31;;;;;;;12.93;11.73;;;;;;;;;;5103310;28;20233;-68
2022/05/02 01:21:59;;;;;;;12.30;10.93;;;;;;;;;;5103381;28;20412;-68
2022/05/02 01:24:32;;;;;;;12.93;11.80;;;;;;;;;;5103109;28;20199;-68
2022/05/02 01:26:59;;;;;;;12.38;11.38;;;;;;;;;;5103094;28;20491;-68
2022/05/02 01:29:26;;;;;;;12.93;11.63;;;;;;;;;;5103336;28;20203;-68
2022/05/02 01:31:53;;;;;;;12.88;11.68;;;;;;;;;;5102809;28;20208;-68
2022/05/02 01:34:19;;;;;;;13.25;12.00;;;;;;;;;;5103219;28;20423;-68
2022/05/02 01:36:45;;;;;;;13.65;12.38;;;;;;;;;;5102676;28;20511;-68
2022/05/02 01:39:13;;;;;;;12.90;11.63;;;;;;;;;;5102949;28;20242;-68
2022/05/02 01:41:39;;;;;;;14.35;12.85;;;;;;;;;;5102912;28;20196;-68
2022/05/02 01:44:06;;;;;;;13.07;11.80;;;;;;;;;;5102943;28;20204;-68
2022/05/02 01:46:32;;;;;;;14.18;12.45;;;;;;;;;;5102632;28;20503;-68
2022/05/02 01:48:59;;;;;;;13.23;11.85;;;;;;;;;;5102794;28;20191;-69
2022/05/02 01:51:25;;;;;;;13.20;11.90;;;;;;;;;;5102945;28;20503;-68
2022/05/02 01:53:51;;;;;;;13.60;12.25;;;;;;;;;;5102777;28;20203;-68
2022/05/02 01:56:19;;;;;;;13.80;11.82;;;;;;;;;;5102625;28;20234;-68
2022/05/02 01:58:45;;;;;;;11.73;10.73;;;;;;;;;;5102802;28;20219;-68
2022/05/02 02:01:11;;;;;;;12.65;11.43;;;;;;;;;;5102873;28;20204;-68
2022/05/02 02:03:37;;;;;;;12.52;11.48;;;;;;;;;;5102736;28;20233;-68
2022/05/02 02:06:03;;;;;;;15.13;11.52;;;;;;;;;;5102753;28;20257;-68
2022/05/02 02:08:30;;;;;;;12.23;11.00;;;;;;;;;;5102852;28;20187;-68
2022/05/02 02:10:58;;;;;;;12.10;10.90;;;;;;;;;;5102709;28;20195;-68
2022/05/02 02:13:25;;;;;;;12.27;11.07;;;;;;;;;;5102370;28;20241;-68
2022/05/02 02:15:52;;;;;;;14.25;12.82;;;;;;;;;;5102426;28;20196;-68
2022/05/02 02:18:18;;;;;;;14.02;12.32;;;;;;;;;;5102314;28;20220;-68
2022/05/02 02:20:45;;;;;;;12.77;11.48;;;;;;;;;;5102794;28;20208;-68
2022/05/02 02:23:12;;;;;;;13.98;12.55;;;;;;;;;;5102548;28;20249;-68
2022/05/02 02:25:38;;;;;;;13.77;12.48;;;;;;;;;;5102687;28;20430;-68
2022/05/02 02:28:05;;;;;;;13.88;11.80;;;;;;;;;;5102350;28;20216;-68
2022/05/02 02:30:32;;;;;;;16.30;12.57;;;;;;;;;;5102522;28;20203;-68
2022/05/02 02:32:59;;;;;;;16.25;12.15;;;;;;;;;;5102360;28;20196;-68
2022/05/02 02:35:26;;;;;;;13.13;11.93;;;;;;;;;;5102650;28;20515;-68
2022/05/02 02:37:52;;;;;;;14.88;13.25;;;;;;;;;;5102303;28;20542;-68
2022/05/02 02:40:19;;;;;;;14.15;12.20;;;;;;;;;;5102558;28;20503;-68
2022/05/02 02:42:45;;;;;;;13.98;12.65;;;;;;;;;;5102296;28;20195;-68
2022/05/02 02:45:12;;;;;;;14.88;12.68;;;;;;;;;;5102659;28;20187;-68
2022/05/02 02:47:40;;;;;;;14.23;12.25;;;;;;;;;;5102411;28;20195;-68
2022/05/02 02:50:06;;;;;;;14.13;12.68;;;;;;;;;;5102509;28;20225;-68
2022/05/02 02:52:32;;;;;;;13.00;11.70;;;;;;;;;;5102469;28;20196;-68
2022/05/02 02:54:59;;;;;;;14.52;13.00;;;;;;;;;;5102382;28;20234;-68
2022/05/02 02:57:25;;;;;;;15.07;12.82;;;;;;;;;;5101638;28;20261;-68
2022/05/02 02:59:51;;;;;;;13.35;12.15;;;;;;;;;;5102291;28;20196;-68
2022/05/02 03:02:18;;;;;;;13.68;12.27;;;;;;;;;;5102103;28;20424;-68
2022/05/02 03:07:30;;;;;;;12.60;11.40;;;;;;;;;;5102202;28;20226;-68
2022/05/02 03:09:57;;;;;;;13.90;11.60;;;;;;;;;;5103831;28;20199;-68
2022/05/02 03:12:23;;;;;;;14.68;12.18;;;;;;;;;;5105874;28;20196;-68
2022/05/02 03:14:49;;;;;;;13.25;12.00;;;;;;;;;;5105449;28;20233;-68
2022/05/02 03:17:16;;;;;;;13.63;12.32;;;;;;;;;;5105137;28;20260;-68
2022/05/02 03:19:42;;;;;;;12.95;11.63;;;;;;;;;;5105809;28;20560;-68
2022/05/02 03:22:10;;;;;;;14.32;12.75;;;;;;;;;;5105471;28;20242;-68
2022/05/02 03:24:36;;;;;;;13.20;12.00;;;;;;;;;;5105558;28;20241;-68
2022/05/02 03:27:02;;;;;;;13.55;11.50;;;;;;;;;;5105276;28;20233;-68
2022/05/02 03:29:29;;;;;;;12.95;11.73;;;;;;;;;;5105455;28;20192;-68
2022/05/02 03:31:55;;;;;;;14.00;12.65;;;;;;;;;;5105694;28;20196;-68
2022/05/02 03:34:21;;;;;;;14.25;12.82;;;;;;;;;;5105755;28;20196;-68
2022/05/02 03:36:47;;;;;;;13.77;12.30;;;;;;;;;;5105588;28;20196;-68
2022/05/02 03:39:15;;;;;;;12.82;11.73;;;;;;;;;;5105237;28;20261;-68
2022/05/02 03:41:42;;;;;;;14.05;12.63;;;;;;;;;;5105589;28;20313;-68
2022/05/02 03:44:08;;;;;;;14.50;13.05;;;;;;;;;;5105134;28;20495;-68
2022/05/02 03:46:34;;;;;;;15.23;13.63;;;;;;;;;;5105139;28;20511;-68
2022/05/02 03:49:00;;;;;;;13.05;11.75;;;;;;;;;;5105319;28;20218;-68
2022/05/02 03:51:27;;;;;;;18.83;12.95;;;;;;;;;;5105248;28;20192;-68
2022/05/02 03:53:53;;;;;;;13.48;12.15;;;;;;;;;;5104644;28;20195;-68
2022/05/02 03:56:21;;;;;;;14.05;12.65;;;;;;;;;;5104480;28;20195;-68
2022/05/02 03:58:47;;;;;;;13.02;11.73;;;;;;;;;;5105032;28;20410;-68
2022/05/02 04:01:13;;;;;;;12.30;11.20;;;;;;;;;;5105009;28;20207;-68
2022/05/02 04:03:40;;;;;;;13.35;11.98;;;;;;;;;;5104806;28;20241;-68
2022/05/02 04:06:06;;;;;;;13.10;11.70;;;;;;;;;;5104333;28;20528;-68
2022/05/02 04:08:32;;;;;;;13.55;11.07;;;;;;;;;;5104611;28;20196;-68
2022/05/02 04:10:58;;;;;;;12.13;10.93;;;;;;;;;;5104231;28;20461;-68
2022/05/02 04:13:26;;;;;;;13.05;11.85;;;;;;;;;;5104719;28;20500;-68
2022/05/02 04:15:52;;;;;;;12.88;11.68;;;;;;;;;;5104530;28;20202;-68
2022/05/02 04:18:18;;;;;;;12.43;11.23;;;;;;;;;;5104338;28;20241;-68
2022/05/02 04:20:45;;;;;;;13.02;11.23;;;;;;;;;;5103336;28;20196;-68
2022/05/02 04:23:11;;;;;;;11.82;10.73;;;;;;;;;;5104356;28;20248;-68
2022/05/02 04:25:37;;;;;;;12.25;11.07;;;;;;;;;;5104153;28;20568;-68
2022/05/02 04:28:04;;;;;;;11.23;10.13;;;;;;;;;;5103977;28;20297;-68
2022/05/02 04:30:31;;;;;;;12.32;11.23;;;;;;;;;;5104538;28;20196;-68
2022/05/02 04:32:57;;;;;;;12.20;11.10;;;;;;;;;;5104255;28;20195;-68
2022/05/02 04:35:24;;;;;;;13.13;11.80;;;;;;;;;;5103961;28;20204;-68
2022/05/02 04:37:50;;;;;;;12.52;11.38;;;;;;;;;;5103668;28;20216;-68
2022/05/02 04:40:16;;;;;;;14.85;11.27;;;;;;;;;;5104193;28;20241;-68
2022/05/02 04:42:42;;;;;;;13.20;11.95;;;;;;;;;;5104024;28;20196;-68
2022/05/02 04:45:09;;;;;;;13.95;12.50;;;;;;;;;;5103678;28;20196;-68
2022/05/02 04:47:36;;;;;;;12.48;11.27;;;;;;;;;;5103610;28;20233;-68
2022/05/02 04:50:03;;;;;;;14.43;11.38;;;;;;;;;;5103775;28;20200;-68
2022/05/02 04:52:29;;;;;;;13.02;11.77;;;;;;;;;;5103724;28;20370;-68
2022/05/02 04:54:55;;;;;;;12.45;11.25;;;;;;;;;;5103851;28;20421;-68
2022/05/02 04:57:21;;;;;;;12.63;11.32;;;;;;;;;;5103345;28;20511;-68
2022/05/02 04:59:48;;;;;;;14.07;12.65;;;;;;;;;;5103956;28;20219;-68
2022/05/02 05:02:15;;;;;;;14.15;11.65;;;;;;;;;;5103438;28;20203;-68
2022/05/02 05:04:42;;;;;;;12.82;11.63;;;;;;;;;;5103507;28;20202;-68
2022/05/02 05:07:08;;;;;;;14.60;13.15;;;;;;;;;;5103362;28;20195;-68
2022/05/02 05:09:35;;;;;;;14.30;12.80;;;;;;;;;;5103816;28;20284;-68
2022/05/02 05:12:06;;;;;;;14.48;12.65;;;;;;;;;;5102999;28;20418;-68
2022/05/02 05:17:30;;;;;;;15.23;13.57;;;;;;;;;;5102900;28;20291;-68
2022/05/02 05:20:03;;;;;;;15.75;13.50;;;;;;;;;;5103031;28;20349;-68
2022/05/02 05:22:39;;;;;;;15.85;14.00;;;;;;;;;;5102790;28;20467;-68
2022/05/02 05:25:15;;;;;;;15.20;13.63;;;;;;;;;;5102733;28;20248;-68
2022/05/02 05:27:59;;;;;;;15.70;13.98;;;;;;;;;;5102397;28;20196;-68
2022/05/02 05:30:27;;;;;;;16.05;14.45;;;;;;;;;;5102618;28;20199;-68
2022/05/02 05:33:01;;;;;;;19.65;15.25;;;;;;;;;;5102354;28;20495;-68
2022/05/02 05:35:37;;;;;;;17.95;16.05;;;;;;;;;;5102661;28;20421;-68
2022/05/02 05:38:07;;;;;;;18.65;16.23;;;;;;;;;;5102565;28;20202;-68
2022/05/02 05:40:35;;;;;;;17.02;15.23;;;;;;;;;;5102020;28;20192;-68
2022/05/02 05:43:18;;;;;;;18.05;16.13;;;;;;;;;;5102268;28;20453;-68
2022/05/02 05:45:51;;;;;;;16.77;15.07;;;;;;;;;;5089210;28;20212;-62
2022/05/02 05:48:22;;;;;;;16.73;15.13;;;;;;;;;;5094190;28;20206;-61
2022/05/02 05:50:54;;;;;;;15.75;14.32;;;;;;;;;;5096073;28;20261;-62
2022/05/02 05:53:28;;;;;;;15.95;14.32;;;;;;;;;;5095875;28;20515;-61
2022/05/02 05:56:12;;;;;;;17.05;15.25;;;;;;;;;;5095747;28;20376;-60
2022/05/02 05:58:46;;;;;;;17.50;15.63;;;;;;;;;;5096071;28;20230;-61
2022/05/02 06:01:15;;;;;;;20.15;16.10;;;;;;;;;;5096033;28;20222;-61
2022/05/02 06:03:48;;;;;;;17.38;15.55;;;;;;;;;;5096209;28;20211;-61
2022/05/02 06:06:17;;;;;;;17.50;15.65;;;;;;;;;;5095678;28;20224;-61
2022/05/02 06:08:45;;;;;;;16.85;15.15;;;;;;;;;;5088210;28;20403;-61
2022/05/02 06:11:12;;;;;;;19.52;15.60;;;;;;;;;;5075797;28;20444;-61
2022/05/02 06:13:39;;;;;;;16.80;15.15;;;;;;;;;;5075982;28;20270;-60
2022/05/02 06:18:51;;;;;;;19.30;15.38;;;;;;;;;;5075673;28;20402;-61
2022/05/02 06:21:21;;;;;;;17.35;15.60;;;;;;;;;;5075654;28;20273;-60
2022/05/02 06:23:50;;;;;;;17.60;15.70;;;;;;;;;;5076234;28;20442;-61
2022/05/02 06:26:18;;;;;;;18.27;15.90;;;;;;;;;;5076473;28;20208;-59
2022/05/02 06:28:45;;;;;;;18.27;15.77;;;;;;;;;;5075656;28;20213;-61
2022/05/02 06:31:13;;;;;;;20.55;16.48;;;;;;;;;;5075846;28;20416;-61
2022/05/02 06:33:40;;;;;;;20.88;17.67;;;;;;;;;;5075820;28;20208;-60
2022/05/02 06:36:19;;;;;;;21.85;17.55;;;;;;;;;;5075148;28;20912;-61
2022/05/02 06:38:51;;;;;;;20.05;17.55;;;;;;;;;;5075542;28;20498;-60
2022/05/02 06:41:22;;;;;;;17.85;16.05;;;;;;;;;;5095817;28;20545;-61
2022/05/02 06:43:53;;;;;;;20.08;16.88;;;;;;;;;;5095896;28;20453;-61
2022/05/02 06:46:20;;;;;;;18.85;16.88;;;;;;;;;;5099480;28;20325;-61
2022/05/02 06:48:49;;;;;;;26.65;18.55;;;;;;;;;;5099860;28;20467;-62
2022/05/02 06:51:18;;;;;;;23.27;17.45;;;;;;;;;;5099628;28;20210;-61
2022/05/02 06:54:12;;;;;;;21.00;16.13;;;;;;;;;;5099705;28;20207;-62
2022/05/02 06:56:41;;;;;;;19.80;16.85;;;;;;;;;;5098960;28;20208;-61
2022/05/02 06:59:11;;;;;;;18.27;16.27;;;;;;;;;;5093501;28;20287;-61
2022/05/02 07:01:40;;;;;;;18.77;16.77;;;;;;;;;;5079045;28;20220;-61
2022/05/02 07:04:12;;;;;;;21.80;17.33;;;;;;;;;;5079226;28;20247;-61
2022/05/02 07:06:46;;;;;;;20.67;17.77;;;;;;;;;;5078224;28;20559;-61
2022/05/02 07:09:18;;;;;;;23.00;17.00;;;;;;;;;;5078958;28;20539;-61
2022/05/02 07:11:47;;;;;;;21.95;18.40;;;;;;;;;;5079012;28;20249;-61
2022/05/02 07:14:17;;;;;;;18.73;16.95;;;;;;;;;;5078810;28;20296;-61
2022/05/02 07:16:48;;;;;;;21.58;16.83;;;;;;;;;;5078164;28;20219;-62
2022/05/02 07:19:24;;;;;;;23.08;17.92;;;;;;;;;;5079193;28;20258;-62
2022/05/02 07:21:57;;;;;;;20.50;18.35;;;;;;;;;;5078827;28;20233;-61
2022/05/02 07:24:32;;;;;;;19.00;16.98;;;;;;;;;;5078812;28;20208;-61
2022/05/02 07:27:01;;;;;;;22.45;18.15;;;;;;;;;;5078282;28;20270;-62
2022/05/02 07:29:28;;;;;;;23.52;17.75;;;;;;;;;;5079010;28;20251;-61
2022/05/02 07:31:54;;;;;;;21.25;15.95;;;;;;;;;;5078798;28;20520;-62
2022/05/02 07:34:21;;;;;;;19.10;16.73;;;;;;;;;;5078562;28;20467;-61
2022/05/02 07:36:50;;;;;;;18.98;16.30;;;;;;;;;;5078154;28;20254;-61
2022/05/02 07:39:19;;;;;;;20.15;17.38;;;;;;;;;;5085070;28;20224;-62
2022/05/02 07:41:47;;;;;;;19.55;17.40;;;;;;;;;;5101543;28;20503;-62
2022/05/02 07:44:15;;;;;;;17.77;15.98;;;;;;;;;;5100525;28;20354;-65
2022/05/02 07:46:42;;;;;;;19.02;17.02;;;;;;;;;;5100579;28;20249;-63
2022/05/02 07:49:10;;;;;;;17.52;15.80;;;;;;;;;;5101383;28;20207;-64
2022/05/02 07:51:41;;;;;;;19.05;16.75;;;;;;;;;;5101162;28;20210;-62
2022/05/02 07:54:08;;;;;;;18.83;16.83;;;;;;;;;;5101497;28;20249;-61
2022/05/02 07:56:36;;;;;;;19.00;15.93;;;;;;;;;;5100828;28;20511;-61
2022/05/02 07:59:06;;;;;;;17.88;15.60;;;;;;;;;;5101249;28;20264;-61
2022/05/02 08:01:32;;;;;;;17.88;15.40;;;;;;;;;;5101236;28;20253;-61
2022/05/02 08:03:58;;;;;;;21.70;16.77;;;;;;;;;;5101049;28;20208;-61
2022/05/02 08:06:36;;;;;;;18.08;16.23;;;;;;;;;;5100352;28;20289;-62
2022/05/02 08:09:07;;;;;;;16.75;15.15;;;;;;;;;;5102161;28;20200;-62
2022/05/02 08:11:38;;;;;;;18.23;16.35;;;;;;;;;;5100899;28;20249;-61
2022/05/02 08:14:07;;;;;;;17.52;15.68;;;;;;;;;;5100775;28;20237;-62
2022/05/02 08:16:35;;;;;;;18.02;16.00;;;;;;;;;;5099947;28;20454;-62
2022/05/02 08:19:10;;;;;;;18.20;14.63;;;;;;;;;;5100837;28;20253;-61
2022/05/02 08:21:41;;;;;;;16.63;14.77;;;;;;;;;;5100744;28;20203;-62
2022/05/02 08:27:19;;;;;;;18.63;14.07;;;;;;;;;;5100814;28;20202;-62
2022/05/02 08:30:04;;;;;;;18.27;13.73;;;;;;;;;;5101386;28;20203;-62
2022/05/02 08:32:34;;;;;;;15.82;13.85;;;;;;;;;;5101379;28;20261;-62
2022/05/02 08:35:03;;;;;;;15.60;13.95;;;;;;;;;;5101454;28;20386;-63
2022/05/02 08:37:37;;;;;;;14.77;13.27;;;;;;;;;;5100508;28;20569;-61
2022/05/02 08:40:09;;;;;;;15.07;13.43;;;;;;;;;;5101046;28;20223;-61
2022/05/02 08:43:03;;;;;;;16.60;12.73;;;;;;;;;;5100813;28;20204;-61
2022/05/02 08:45:50;;;;;;;15.43;13.80;;;;;;;;;;5064269;28;20207;-61
2022/05/02 08:48:43;;;;;;;13.98;12.65;;;;;;;;;;5101707;28;20209;-62
2022/05/02 08:51:24;;;;;;;13.80;12.40;;;;;;;;;;5100944;28;20253;-62
2022/05/02 08:54:03;;;;;;;14.35;12.85;;;;;;;;;;5097949;28;20210;-62
2022/05/02 08:56:36;;;;;;;17.58;12.25;;;;;;;;;;5099549;28;20427;-61
2022/05/02 08:59:13;;;;;;;16.17;11.98;;;;;;;;;;5099841;28;20211;-61
2022/05/02 09:01:52;;;;;;;12.15;10.85;;;;;;;;;;5100619;28;20397;-61
2022/05/02 09:04:36;;;;;;;12.57;11.35;;;;;;;;;;5098103;28;20208;-61
2022/05/02 09:07:22;;;;;;;14.48;12.02;;;;;;;;;;5096304;28;20341;-61
2022/05/02 09:10:07;;;;;;;12.90;11.63;;;;;;;;;;5097540;28;20203;-61
2022/05/02 09:12:55;;;;;;;13.05;11.70;;;;;;;;;;5097117;28;20207;-61
2022/05/02 09:15:36;;;;;;;12.15;10.95;;;;;;;;;;5097504;28;20207;-61
2022/05/02 09:18:20;;;;;;;10.90;9.77;;;;;;;;;;5094425;28;20211;-61
2022/05/02 09:20:55;;;;;;;9.98;9.05;;;;;;;;;;5097180;28;20223;-61
2022/05/02 09:23:54;;;;;;;11.07;9.98;;;;;;;;;;5097101;28;20211;-62
2022/05/02 09:26:44;;;;;;;11.88;10.70;;;;;;;;;;5034251;28;20209;-61
2022/05/02 09:29:23;;;;;;;8.73;7.93;;;;;;;;;;5034763;28;20505;-61
2022/05/02 09:31:58;;;;;;;8.90;8.13;;;;;;;;;;5077614;28;20229;-62
2022/05/02 09:34:34;;;;;;;8.50;7.57;;;;;;;;;;5097227;28;20277;-61
2022/05/02 09:37:02;;;;;;;7.30;6.70;;;;;;;;;;5096976;28;20207;-61
2022/05/02 09:39:36;;;;;;;6.95;5.97;;;;;;;;;;5097138;28;20227;-61
2022/05/02 09:42:21;;;;;;;7.35;6.70;;;;;;;;;;5097329;28;20212;-61
2022/05/02 09:50:46;;;;;;;6.35;5.95;;;;;;;;;;5097030;28;20207;-63
2022/05/02 09:53:26;;;;;;;6.97;6.43;;;;;;;;;;5097399;28;20207;-62
2022/05/02 09:58:38;;;;;;;7.50;6.03;;;;;;;;;;5096672;28;20398;-61
2022/05/02 10:01:08;;;;;;;7.22;6.63;;;;;;;;;;5096779;28;20223;-61
2022/05/02 10:03:37;;;;;;;6.40;5.80;;;;;;;;;;5096812;28;20215;-61
2022/05/02 10:06:05;;;;;;;6.13;5.57;;;;;;;;;;5096282;28;20224;-61
2022/05/02 10:08:39;;;;;;;6.30;5.80;;;;;;;;;;5096183;28;20207;-62
2022/05/02 10:11:07;;;;;;;9.82;6.43;;;;;;;;;;5096681;28;20249;-61
2022/05/02 10:13:38;;;;;;;6.30;5.78;;;;;;;;;;5096882;28;20526;-61
2022/05/02 10:16:11;;;;;;;6.00;5.50;;;;;;;;;;5096697;28;20231;-62
2022/05/02 10:18:52;;;;;;;7.95;6.90;;;;;;;;;;5098487;28;20226;-61
2022/05/02 10:21:39;;;;;;;7.45;6.75;;;;;;;;;;5098309;28;20400;-62
2022/05/02 10:24:20;;;;;;;7.57;6.95;;;;;;;;;;5101017;28;20454;-62
2022/05/02 10:26:52;;;;;;;6.22;5.65;;;;;;;;;;5100139;28;20532;-62
2022/05/02 10:29:42;;;;;;;6.85;6.28;;;;;;;;;;5100894;28;20515;-62
2022/05/02 10:32:18;;;;;;;8.27;7.57;;;;;;;;;;5101325;28;20267;-61
2022/05/02 10:34:46;;;;;;;7.10;6.45;;;;;;;;;;5100520;28;20245;-62
2022/05/02 10:37:13;;;;;;;7.45;6.72;;;;;;;;;;5100043;28;20532;-60
2022/05/02 10:39:46;;;;;;;7.47;5.80;;;;;;;;;;5100387;28;20504;-60
2022/05/02 10:42:14;;;;;;;7.38;6.28;;;;;;;;;;5100581;28;20208;-61
2022/05/02 10:44:43;;;;;;;6.32;5.65;;;;;;;;;;5100025;28;20212;-61
2022/05/02 10:47:12;;;;;;;6.63;5.97;;;;;;;;;;5099926;28;20560;-61
2022/05/02 10:49:46;;;;;;;5.82;5.53;;;;;;;;;;5100125;28;20568;-61
2022/05/02 10:52:16;;;;;;;6.72;6.07;;;;;;;;;;5100107;28;20216;-60
2022/05/02 10:54:46;;;;;;;6.82;6.32;;;;;;;;;;5099909;28;20249;-60
2022/05/02 10:57:17;;;;;;;6.35;5.85;;;;;;;;;;5099397;28;20207;-60
2022/05/02 10:59:45;;;;;;;6.75;5.70;;;;;;;;;;5099730;28;20223;-61
2022/05/02 11:02:26;;;;;;;8.30;6.20;;;;;;;;;;5099888;28;20247;-61
2022/05/02 11:05:04;;;;;;;6.20;5.68;;;;;;;;;;5099701;28;20207;-61
2022/05/02 11:07:35;;;;;;;5.30;4.80;;;;;;;;;;5099278;28;20242;-62
2022/05/02 11:10:07;;;;;;;5.88;4.90;;;;;;;;;;5099709;28;20200;-62
2022/05/02 11:12:36;;;;;;;5.53;5.13;;;;;;;;;;5099843;28;20428;-62
2022/05/02 11:15:05;;;;;;;5.40;4.45;;;;;;;;;;5099222;28;20572;-62
2022/05/02 11:17:36;;;;;;;6.03;5.43;;;;;;;;;;5098748;28;20235;-62
2022/05/02 11:22:57;;;;;;;4.50;4.30;;;;;;;;;;5099751;28;20225;-61
2022/05/02 11:25:27;;;;;;;4.57;4.38;;;;;;;;;;5099354;28;20208;-62
2022/05/02 11:27:59;;;;;;;4.85;4.40;;;;;;;;;;5095741;28;20208;-61
2022/05/02 11:30:27;;;;;;;4.95;4.60;;;;;;;;;;5081448;28;20272;-61
2022/05/02 11:33:15;;;;;;;4.40;4.15;;;;;;;;;;5084664;28;20208;-61
2022/05/02 11:35:46;;;;;;;4.22;4.03;;;;;;;;;;5092677;28;20208;-61
2022/05/02 11:38:20;;;;;;;4.57;4.00;;;;;;;;;;5098864;28;20764;-62
2022/05/02 11:40:51;;;;;;;6.50;4.53;;;;;;;;;;5082544;28;20208;-62
2022/05/02 11:43:22;;;;;;;3.95;3.75;;;;;;;;;;5091859;28;20257;-62
2022/05/02 11:45:50;;;;;;;3.78;3.58;;;;;;;;;;5090519;28;20208;-62
2022/05/02 11:48:29;;;;;;;3.50;3.30;;;;;;;;;;5099227;28;20253;-62
2022/05/02 11:50:57;;;;;;;4.30;4.00;;;;;;;;;;5097458;28;20215;-62
2022/05/02 11:53:25;;;;;;;5.15;3.42;;;;;;;;;;5098662;28;20208;-63
2022/05/02 11:55:53;;;;;;;3.63;3.45;;;;;;;;;;5098771;28;20207;-62
2022/05/02 11:58:25;;;;;;;3.65;3.45;;;;;;;;;;5098773;28;20235;-63
2022/05/02 12:00:53;;;;;;;4.38;3.85;;;;;;;;;;5098529;28;20227;-62
2022/05/02 12:03:23;;;;;;;4.40;4.10;;;;;;;;;;5098333;28;20207;-62
2022/05/02 12:05:51;;;;;;;4.15;3.80;;;;;;;;;;5098398;28;20294;-62
2022/05/02 12:08:22;;;;;;;4.05;3.72;;;;;;;;;;5085411;28;20234;-62
2022/05/02 12:10:49;;;;;;;3.47;3.38;;;;;;;;;;5078079;28;20213;-63
2022/05/02 12:13:17;;;;;;;4.10;3.80;;;;;;;;;;5078099;28;20208;-63
2022/05/02 12:15:56;;;;;;;3.80;3.50;;;;;;;;;;5078401;28;20446;-62
2022/05/02 12:18:22;;;;;;;3.63;3.42;;;;;;;;;;5078138;28;20297;-63
2022/05/02 12:20:51;;;;;;;4.75;4.13;;;;;;;;;;5077620;28;20464;-62
2022/05/02 12:23:18;;;;;;;3.05;2.95;;;;;;;;;;5077772;28;20208;-62
2022/05/02 12:25:47;;;;;;;3.83;3.63;;;;;;;;;;5077724;28;20519;-62
2022/05/02 12:28:13;;;;;;;4.40;3.78;;;;;;;;;;5077814;28;20516;-62
2022/05/02 12:30:41;;;;;;;4.10;3.67;;;;;;;;;;5077875;28;20204;-62
2022/05/02 12:33:08;;;;;;;4.00;3.80;;;;;;;;;;5077758;28;20208;-62
2022/05/02 12:35:36;;;;;;;3.58;3.38;;;;;;;;;;5084299;28;20586;-62
2022/05/02 12:38:10;;;;;;;3.70;3.33;;;;;;;;;;5097386;28;20227;-62
2022/05/02 12:40:37;;;;;;;3.47;3.30;;;;;;;;;;5098014;28;20224;-62
2022/05/02 12:43:07;;;;;;;3.95;3.75;;;;;;;;;;5097003;28;20273;-62
2022/05/02 12:45:43;;;;;;;4.43;3.10;;;;;;;;;;5098261;28;20500;-63
2022/05/02 12:48:16;;;;;;;6.13;3.80;;;;;;;;;;5097657;28;20211;-62
2022/05/02 12:50:44;;;;;;;3.92;3.63;;;;;;;;;;5097419;28;20215;-62
2022/05/02 12:54:09;;;;;;;3.88;3.67;;;;;;;;;;5097486;28;20233;-60
2022/05/02 12:56:05;;;;;;;4.13;3.75;;;;;;;;;;5097560;28;20204;-62
2022/05/02 13:01:29;;;;;;;3.67;3.47;;;;;;;;;;5054377;28;20231;-63
2022/05/02 13:04:05;;;;;;;3.53;3.30;;;;;;;;;;5114513;27;20559;-62
2022/05/02 13:06:31;;;;;;;3.30;3.10;;;;;;;;;;5114269;28;20253;-62
2022/05/02 13:09:08;;;;;;;3.35;2.67;;;;;;;;;;5114623;28;20207;-63
2022/05/02 13:11:36;;;;;;;4.43;3.45;;;;;;;;;;5113898;28;20206;-62
2022/05/02 13:14:03;;;;;;;3.00;2.90;;;;;;;;;;5114120;28;20229;-62
2022/05/02 13:16:30;;;;;;;2.70;2.63;;;;;;;;;;5114181;28;20253;-62
2022/05/02 13:19:00;;;;;;;2.72;2.63;;;;;;;;;;5114327;28;20252;-62
2022/05/02 13:21:28;;;;;;;3.03;2.83;;;;;;;;;;5114255;28;20207;-62
2022/05/02 13:23:57;;;;;;;3.17;2.97;;;;;;;;;;5113993;28;20294;-61
2022/05/02 13:26:44;;;;;;;3.10;2.78;;;;;;;;;;5114240;28;20205;-62
2022/05/02 13:29:16;;;;;;;2.42;2.35;;;;;;;;;;5113995;28;20248;-62
2022/05/02 13:31:46;;;;;;;2.80;2.63;;;;;;;;;;5113413;28;20207;-62
2022/05/02 13:34:18;;;;;;;3.00;2.90;;;;;;;;;;5113969;28;20315;-62
2022/05/02 13:36:47;;;;;;;2.70;2.60;;;;;;;;;;5113634;28;20214;-62
2022/05/02 13:39:15;;;;;;;2.80;2.70;;;;;;;;;;5113764;28;20215;-62
2022/05/02 13:41:43;;;;;;;2.83;2.72;;;;;;;;;;5113241;28;20207;-62
2022/05/02 13:44:15;;;;;;;2.85;2.75;;;;;;;;;;5113696;28;20557;-62
2022/05/02 13:46:45;;;;;;;2.72;2.60;;;;;;;;;;5113723;28;20208;-62
2022/05/02 13:49:20;;;;;;;2.80;2.70;;;;;;;;;;5113860;28;20200;-62
2022/05/02 13:51:54;;;;;;;3.08;2.97;;;;;;;;;;5113358;28;20210;-62
2022/05/02 13:54:25;;;;;;;2.70;2.60;;;;;;;;;;5113206;28;20207;-61
2022/05/02 13:56:56;;;;;;;3.10;2.95;;;;;;;;;;5113106;28;20252;-61
2022/05/02 13:59:28;;;;;;;3.33;3.10;;;;;;;;;;5112804;28;20405;-62
2022/05/02 14:01:59;;;;;;;3.10;3.00;;;;;;;;;;5112253;28;20620;-62
2022/05/02 14:04:37;;;;;;;3.35;3.25;;;;;;;;;;5112249;28;20518;-62
2022/05/02 14:07:11;;;;;;;3.08;2.88;;;;;;;;;;5111720;28;20206;-62
2022/05/02 14:09:41;;;;;;;2.70;2.50;;;;;;;;;;5112398;28;20256;-62
2022/05/02 14:12:10;;;;;;;2.45;2.35;;;;;;;;;;5112016;28;20203;-62
2022/05/02 14:14:52;;;;;;;4.60;2.85;;;;;;;;;;5103402;28;20546;-61
2022/05/02 14:17:26;;;;;;;3.22;2.92;;;;;;;;;;5098511;28;20269;-62
2022/05/02 14:19:53;;;;;;;3.10;2.90;;;;;;;;;;5099037;28;20208;-62
2022/05/02 14:22:32;;;;;;;3.03;2.92;;;;;;;;;;5098159;28;20230;-62
2022/05/02 14:24:59;;;;;;;3.15;3.05;;;;;;;;;;5096774;28;20573;-62
2022/05/02 14:27:26;;;;;;;2.92;2.83;;;;;;;;;;5094500;28;20527;-63
2022/05/02 14:30:01;;;;;;;3.17;2.83;;;;;;;;;;5097209;28;20212;-63
2022/05/02 14:32:39;;;;;;;2.83;2.72;;;;;;;;;;5098121;28;20211;-61
2022/05/02 14:35:06;;;;;;;3.22;2.85;;;;;;;;;;5095036;28;20211;-64
2022/05/02 14:37:34;;;;;;;2.92;2.72;;;;;;;;;;5098465;28;20264;-64
2022/05/02 14:40:01;;;;;;;2.95;2.80;;;;;;;;;;5099846;28;20253;-64
2022/05/02 14:42:27;;;;;;;3.00;2.83;;;;;;;;;;5098400;28;20290;-64
2022/05/02 14:44:54;;;;;;;2.60;2.42;;;;;;;;;;5099014;28;20449;-64
2022/05/02 14:47:22;;;;;;;3.03;2.83;;;;;;;;;;5098568;28;20399;-64
2022/05/02 14:49:48;;;;;;;3.35;3.05;;;;;;;;;;5098642;28;20439;-63
2022/05/02 14:52:18;;;;;;;2.78;2.67;;;;;;;;;;5097834;28;20212;-63
2022/05/02 14:54:48;;;;;;;2.70;2.60;;;;;;;;;;5098509;28;20211;-61
2022/05/02 14:57:15;;;;;;;3.10;2.90;;;;;;;;;;5097428;28;20439;-61
2022/05/02 14:59:41;;;;;;;2.28;2.25;;;;;;;;;;5098581;28;20519;-62
2022/05/02 15:02:08;;;;;;;2.75;2.65;;;;;;;;;;5097703;28;20224;-62
2022/05/02 15:04:38;;;;;;;3.00;2.90;;;;;;;;;;5098520;28;20288;-61
2022/05/02 15:07:04;;;;;;;3.13;3.03;;;;;;;;;;5098749;28;20207;-61
2022/05/02 15:12:32;;;;;;;3.00;2.80;;;;;;;;;;5097935;28;20241;-62